Iblea — IBFK — position and weather

sailwx.info

Track history (hours):
 
Tides and Currents Weather Stations Pressure Air Temp Water Temp Dewpoint Dewpoint Depression Visibility Wind Speed Wind Dir Waves Ship Positions

Iblea

Last reported at 2017-Feb-19 23:05 UTC. Time now 2017-Feb-22 17:24 UTC.
Position N 36°03' W 004°45'.

Length 176 m; draft 10.9 m.

Type: Ship (hazmat cat A). MMSI: 247087700.

Date/timePositionNaut miles runAvg speedWind from/ knotsBaromVisibWave heightAir tempDewpointWater temp
2017-Feb-19 23:05N 36°03' W 004°45'5 9.6
2017-Feb-19 22:33N 36°02' W 004°51'1010.0
2017-Feb-19 21:33N 36°01' W 005°04'1010.5
2017-Feb-19 20:33N 36°00' W 005°17'9 8.5
2017-Feb-19 19:33N 36°07' W 005°24'2 2.2
2017-Feb-19 18:33N 36°08' W 005°26'0 0.0
2017-Feb-19 17:33N 36°08' W 005°26'0 0.0
2017-Feb-19 16:33N 36°08' W 005°26'0 0.0
2017-Feb-19 15:33N 36°08' W 005°26'0 0.0
2017-Feb-19 14:30N 36°08' W 005°26'0 0.0
2017-Feb-19 13:30N 36°08' W 005°26'0 0.0
2017-Feb-19 12:33N 36°08' W 005°26'0 0.0
2017-Feb-19 11:30N 36°08' W 005°26'0 0.0
2017-Feb-19 10:33N 36°08' W 005°26'0 0.0
2017-Feb-19 09:33N 36°08' W 005°26'0 0.0
2017-Feb-19 08:33N 36°08' W 005°26'0 0.0
2017-Feb-19 07:33N 36°08' W 005°26'0 0.0
2017-Feb-19 06:33N 36°08' W 005°26'0 0.0
2017-Feb-19 05:33N 36°08' W 005°26'0 0.0
2017-Feb-19 04:33N 36°08' W 005°26'0 0.0
2017-Feb-19 03:33N 36°08' W 005°26'0 0.0
2017-Feb-19 02:33N 36°08' W 005°26'0 0.0
2017-Feb-19 01:33N 36°08' W 005°26'0 0.0
2017-Feb-19 00:33N 36°08' W 005°26'0 0.0
2017-Feb-18 23:33N 36°08' W 005°26'0 0.0
2017-Feb-18 22:33N 36°08' W 005°26'0 0.0
2017-Feb-18 21:33N 36°08' W 005°26'0 0.0
2017-Feb-18 20:33N 36°08' W 005°26'0 0.0
2017-Feb-18 19:33N 36°08' W 005°26'0 0.0
2017-Feb-18 18:33N 36°08' W 005°26'0 0.0
2017-Feb-18 17:33N 36°08' W 005°26'0 0.0
2017-Feb-18 16:33N 36°08' W 005°26'0 0.0
2017-Feb-18 15:33N 36°08' W 005°26'0 0.0
2017-Feb-18 14:33N 36°08' W 005°26'0 0.0
2017-Feb-18 13:33N 36°08' W 005°26'0 0.0
2017-Feb-18 12:33N 36°08' W 005°26'0 0.0
2017-Feb-18 11:33N 36°08' W 005°26'0 0.0
2017-Feb-18 10:33N 36°08' W 005°26'0 0.0
2017-Feb-18 09:33N 36°08' W 005°26'0 0.0
2017-Feb-18 08:33N 36°08' W 005°26'0 0.0
2017-Feb-18 07:33N 36°08' W 005°26'0 0.0
2017-Feb-18 06:33N 36°08' W 005°26'0 0.0
2017-Feb-18 05:33N 36°08' W 005°26'0 0.0
2017-Feb-18 04:33N 36°08' W 005°26'0 0.0
2017-Feb-18 03:33N 36°08' W 005°26'0 0.0
2017-Feb-18 02:33N 36°08' W 005°26'3 2.7
2017-Feb-18 01:33N 36°06' W 005°24'1 0.9
2017-Feb-18 00:31N 36°06' W 005°25'0 0.0
2017-Feb-17 23:34N 36°06' W 005°25'0 0.0
2017-Feb-17 22:31N 36°06' W 005°25'0 0.0
2017-Feb-17 21:31N 36°06' W 005°25'0 0.0
2017-Feb-17 20:31N 36°06' W 005°25'0 0.0
2017-Feb-17 19:31N 36°06' W 005°25'0 0.0
2017-Feb-17 18:31N 36°06' W 005°25'0 0.0
2017-Feb-17 17:31N 36°06' W 005°25'0 0.0
2017-Feb-17 16:31N 36°06' W 005°25'0 0.0
2017-Feb-17 15:31N 36°06' W 005°25'0 0.1
2017-Feb-17 14:31N 36°06' W 005°25'0 0.0
2017-Feb-17 13:31N 36°06' W 005°25'0 0.0
2017-Feb-17 12:31N 36°06' W 005°25'0 0.0
2017-Feb-17 11:28N 36°06' W 005°25'0 0.0
2017-Feb-17 10:13N 36°06' W 005°25'0 0.0
2017-Feb-17 09:19N 36°06' W 005°25'0 0.0
2017-Feb-17 07:16N 36°06' W 005°25'0 0.0
2017-Feb-17 06:28N 36°06' W 005°25'0 0.1
2017-Feb-17 05:31N 36°06' W 005°25'0 0.0
2017-Feb-17 04:31N 36°06' W 005°25'0 0.0
2017-Feb-17 00:31N 36°06' W 005°25'0 0.0
2017-Feb-16 23:31N 36°06' W 005°25'0 0.0
2017-Feb-16 22:31N 36°06' W 005°25'0 0.0
2017-Feb-16 18:31N 36°06' W 005°25'0 0.0
2017-Feb-16 17:31N 36°06' W 005°25'0 0.0
2017-Feb-16 16:31N 36°06' W 005°25'0 0.0
2017-Feb-16 15:31N 36°06' W 005°25'0 0.0
2017-Feb-16 14:31N 36°06' W 005°25'0 0.0
2017-Feb-16 13:31N 36°06' W 005°25'0 0.0
2017-Feb-16 12:31N 36°06' W 005°25'0 0.0
2017-Feb-16 11:31N 36°06' W 005°25'0 0.0
2017-Feb-16 10:31N 36°06' W 005°25'0 0.0
2017-Feb-16 09:31N 36°06' W 005°25'0 0.0
2017-Feb-16 08:31N 36°06' W 005°25'0 0.0
2017-Feb-16 06:28N 36°06' W 005°25'0 0.1
2017-Feb-16 05:31N 36°06' W 005°25'0 0.1
2017-Feb-16 04:25N 36°06' W 005°25'0 0.1
2017-Feb-16 03:31N 36°06' W 005°25'0 0.1
2017-Feb-16 02:28N 36°06' W 005°25'0 0.0
2017-Feb-16 01:22N 36°06' W 005°25'0 0.0
2017-Feb-16 00:31N 36°06' W 005°25'0 0.0
2017-Feb-15 23:31N 36°06' W 005°25'0 0.0
2017-Feb-15 22:31N 36°06' W 005°25'0 0.0
2017-Feb-15 21:31N 36°06' W 005°25'0 0.0
2017-Feb-15 20:19N 36°06' W 005°25'0 0.0
2017-Feb-15 19:16N 36°06' W 005°25'0 0.0
2017-Feb-15 18:28N 36°06' W 005°25'0 0.0
2017-Feb-15 17:31N 36°06' W 005°25'0 0.0
2017-Feb-15 16:31N 36°06' W 005°25'0 0.0
2017-Feb-15 15:31N 36°06' W 005°25'0 0.1
2017-Feb-15 14:31N 36°06' W 005°25'0 0.0
2017-Feb-15 13:31N 36°06' W 005°25'0 0.0
2017-Feb-15 12:31N 36°06' W 005°25'0 0.0
2017-Feb-15 11:31N 36°06' W 005°25'0 0.0
2017-Feb-15 10:31N 36°06' W 005°25'0 0.0
2017-Feb-15 09:31N 36°06' W 005°25'0 0.0
2017-Feb-15 08:31N 36°06' W 005°25'0 0.0
2017-Feb-15 07:31N 36°06' W 005°25'0 0.0
2017-Feb-15 06:31N 36°06' W 005°25'0 0.0
2017-Feb-15 05:31N 36°06' W 005°25'0 0.1
2017-Feb-15 04:31N 36°06' W 005°25'0 0.1
2017-Feb-15 03:31N 36°06' W 005°25'0 0.0
2017-Feb-15 02:31N 36°06' W 005°25'0 0.1
2017-Feb-15 01:31N 36°06' W 005°25'0 0.0
2017-Feb-15 00:31N 36°06' W 005°25'0 0.0
2017-Feb-14 23:31N 36°06' W 005°25'0 0.1
2017-Feb-14 22:31N 36°06' W 005°25'0 0.5
2017-Feb-14 21:33N 36°06' W 005°25'1111.1
2017-Feb-14 20:33N 36°05' W 005°11'1312.8
2017-Feb-14 19:32N 36°08' W 004°55'1212.7
2017-Feb-14 18:33N 36°10' W 004°40'18912.5
2017-Feb-14 03:22N 37°17' W 000°59'1113.1
2017-Feb-14 02:33N 37°24' W 000°49'1313.1
2017-Feb-14 01:33N 37°33' W 000°37'1312.9
2017-Feb-14 00:33N 37°43' W 000°27'1313.0
2017-Feb-13 23:33N 37°54' W 000°18'13712.5
2017-Feb-13 12:33N 39°59' E 000°54'1312.6
2017-Feb-13 11:33N 40°11' E 000°58'1212.4
2017-Feb-13 10:33N 40°23' E 001°01'1312.5
2017-Feb-13 09:30N 40°36' E 001°05'1212.4
2017-Feb-13 08:32N 40°48' E 001°08'18 1.8
2017-Feb-12 22:31N 41°05' E 001°12'0 0.0
2017-Feb-12 20:13N 41°05' E 001°12'0 0.0
2017-Feb-12 16:31N 41°05' E 001°12'0 0.0
2017-Feb-12 11:25N 41°05' E 001°12'0 0.0
2017-Feb-12 06:25N 41°05' E 001°12'3 0.1
2017-Feb-10 04:30N 41°05' E 001°17'0 0.0
2017-Feb-10 02:18N 41°05' E 001°17'  
Track history (hours):
 
Tides and Currents Weather Stations Pressure Air Temp Water Temp Dewpoint Dewpoint Depression Visibility Wind Speed Wind Dir Waves Ship Positions

Iblea

Last reported at 2017-Feb-19 23:05 UTC. Time now 2017-Feb-22 17:24 UTC.
Position N 36°03' W 004°45'.

Length 176 m; draft 10.9 m.

Type: Ship (hazmat cat A). MMSI: 247087700.

Date/timePositionNaut miles runAvg speedWind from/ knotsBaromVisibWave heightAir tempDewpointWater temp
2017-Feb-19 23:05N 36°03' W 004°45'5 9.6
2017-Feb-19 22:33N 36°02' W 004°51'1010.0
2017-Feb-19 21:33N 36°01' W 005°04'1010.5
2017-Feb-19 20:33N 36°00' W 005°17'9 8.5
2017-Feb-19 19:33N 36°07' W 005°24'2 2.2
2017-Feb-19 18:33N 36°08' W 005°26'0 0.0
2017-Feb-19 17:33N 36°08' W 005°26'0 0.0
2017-Feb-19 16:33N 36°08' W 005°26'0 0.0
2017-Feb-19 15:33N 36°08' W 005°26'0 0.0
2017-Feb-19 14:30N 36°08' W 005°26'0 0.0
2017-Feb-19 13:30N 36°08' W 005°26'0 0.0
2017-Feb-19 12:33N 36°08' W 005°26'0 0.0
2017-Feb-19 11:30N 36°08' W 005°26'0 0.0
2017-Feb-19 10:33N 36°08' W 005°26'0 0.0
2017-Feb-19 09:33N 36°08' W 005°26'0 0.0
2017-Feb-19 08:33N 36°08' W 005°26'0 0.0
2017-Feb-19 07:33N 36°08' W 005°26'0 0.0
2017-Feb-19 06:33N 36°08' W 005°26'0 0.0
2017-Feb-19 05:33N 36°08' W 005°26'0 0.0
2017-Feb-19 04:33N 36°08' W 005°26'0 0.0
2017-Feb-19 03:33N 36°08' W 005°26'0 0.0
2017-Feb-19 02:33N 36°08' W 005°26'0 0.0
2017-Feb-19 01:33N 36°08' W 005°26'0 0.0
2017-Feb-19 00:33N 36°08' W 005°26'0 0.0
2017-Feb-18 23:33N 36°08' W 005°26'0 0.0
2017-Feb-18 22:33N 36°08' W 005°26'0 0.0
2017-Feb-18 21:33N 36°08' W 005°26'0 0.0
2017-Feb-18 20:33N 36°08' W 005°26'0 0.0
2017-Feb-18 19:33N 36°08' W 005°26'0 0.0
2017-Feb-18 18:33N 36°08' W 005°26'0 0.0
2017-Feb-18 17:33N 36°08' W 005°26'0 0.0
2017-Feb-18 16:33N 36°08' W 005°26'0 0.0
2017-Feb-18 15:33N 36°08' W 005°26'0 0.0
2017-Feb-18 14:33N 36°08' W 005°26'0 0.0
2017-Feb-18 13:33N 36°08' W 005°26'0 0.0
2017-Feb-18 12:33N 36°08' W 005°26'0 0.0
2017-Feb-18 11:33N 36°08' W 005°26'0 0.0
2017-Feb-18 10:33N 36°08' W 005°26'0 0.0
2017-Feb-18 09:33N 36°08' W 005°26'0 0.0
2017-Feb-18 08:33N 36°08' W 005°26'0 0.0
2017-Feb-18 07:33N 36°08' W 005°26'0 0.0
2017-Feb-18 06:33N 36°08' W 005°26'0 0.0
2017-Feb-18 05:33N 36°08' W 005°26'0 0.0
2017-Feb-18 04:33N 36°08' W 005°26'0 0.0
2017-Feb-18 03:33N 36°08' W 005°26'0 0.0
2017-Feb-18 02:33N 36°08' W 005°26'3 2.7
2017-Feb-18 01:33N 36°06' W 005°24'1 0.9
2017-Feb-18 00:31N 36°06' W 005°25'0 0.0
2017-Feb-17 23:34N 36°06' W 005°25'0 0.0
2017-Feb-17 22:31N 36°06' W 005°25'0 0.0
2017-Feb-17 21:31N 36°06' W 005°25'0 0.0
2017-Feb-17 20:31N 36°06' W 005°25'0 0.0
2017-Feb-17 19:31N 36°06' W 005°25'0 0.0
2017-Feb-17 18:31N 36°06' W 005°25'0 0.0
2017-Feb-17 17:31N 36°06' W 005°25'0 0.0
2017-Feb-17 16:31N 36°06' W 005°25'0 0.0
2017-Feb-17 15:31N 36°06' W 005°25'0 0.1
2017-Feb-17 14:31N 36°06' W 005°25'0 0.0
2017-Feb-17 13:31N 36°06' W 005°25'0 0.0
2017-Feb-17 12:31N 36°06' W 005°25'0 0.0
2017-Feb-17 11:28N 36°06' W 005°25'0 0.0
2017-Feb-17 10:13N 36°06' W 005°25'0 0.0
2017-Feb-17 09:19N 36°06' W 005°25'0 0.0
2017-Feb-17 07:16N 36°06' W 005°25'0 0.0
2017-Feb-17 06:28N 36°06' W 005°25'0 0.1
2017-Feb-17 05:31N 36°06' W 005°25'0 0.0
2017-Feb-17 04:31N 36°06' W 005°25'0 0.0
2017-Feb-17 00:31N 36°06' W 005°25'0 0.0
2017-Feb-16 23:31N 36°06' W 005°25'0 0.0
2017-Feb-16 22:31N 36°06' W 005°25'0 0.0
2017-Feb-16 18:31N 36°06' W 005°25'0 0.0
2017-Feb-16 17:31N 36°06' W 005°25'0 0.0
2017-Feb-16 16:31N 36°06' W 005°25'0 0.0
2017-Feb-16 15:31N 36°06' W 005°25'0 0.0
2017-Feb-16 14:31N 36°06' W 005°25'0 0.0
2017-Feb-16 13:31N 36°06' W 005°25'0 0.0
2017-Feb-16 12:31N 36°06' W 005°25'0 0.0
2017-Feb-16 11:31N 36°06' W 005°25'0 0.0
2017-Feb-16 10:31N 36°06' W 005°25'0 0.0
2017-Feb-16 09:31N 36°06' W 005°25'0 0.0
2017-Feb-16 08:31N 36°06' W 005°25'0 0.0
2017-Feb-16 06:28N 36°06' W 005°25'0 0.1
2017-Feb-16 05:31N 36°06' W 005°25'0 0.1
2017-Feb-16 04:25N 36°06' W 005°25'0 0.1
2017-Feb-16 03:31N 36°06' W 005°25'0 0.1
2017-Feb-16 02:28N 36°06' W 005°25'0 0.0
2017-Feb-16 01:22N 36°06' W 005°25'0 0.0
2017-Feb-16 00:31N 36°06' W 005°25'0 0.0
2017-Feb-15 23:31N 36°06' W 005°25'0 0.0
2017-Feb-15 22:31N 36°06' W 005°25'0 0.0
2017-Feb-15 21:31N 36°06' W 005°25'0 0.0
2017-Feb-15 20:19N 36°06' W 005°25'0 0.0
2017-Feb-15 19:16N 36°06' W 005°25'0 0.0
2017-Feb-15 18:28N 36°06' W 005°25'0 0.0
2017-Feb-15 17:31N 36°06' W 005°25'0 0.0
2017-Feb-15 16:31N 36°06' W 005°25'0 0.0
2017-Feb-15 15:31N 36°06' W 005°25'0 0.1
2017-Feb-15 14:31N 36°06' W 005°25'0 0.0
2017-Feb-15 13:31N 36°06' W 005°25'0 0.0
2017-Feb-15 12:31N 36°06' W 005°25'0 0.0
2017-Feb-15 11:31N 36°06' W 005°25'0 0.0
2017-Feb-15 10:31N 36°06' W 005°25'0 0.0
2017-Feb-15 09:31N 36°06' W 005°25'0 0.0
2017-Feb-15 08:31N 36°06' W 005°25'0 0.0
2017-Feb-15 07:31N 36°06' W 005°25'0 0.0
2017-Feb-15 06:31N 36°06' W 005°25'0 0.0
2017-Feb-15 05:31N 36°06' W 005°25'0 0.1
2017-Feb-15 04:31N 36°06' W 005°25'0 0.1
2017-Feb-15 03:31N 36°06' W 005°25'0 0.0
2017-Feb-15 02:31N 36°06' W 005°25'0 0.1
2017-Feb-15 01:31N 36°06' W 005°25'0 0.0
2017-Feb-15 00:31N 36°06' W 005°25'0 0.0
2017-Feb-14 23:31N 36°06' W 005°25'0 0.1
2017-Feb-14 22:31N 36°06' W 005°25'0 0.5
2017-Feb-14 21:33N 36°06' W 005°25'1111.1
2017-Feb-14 20:33N 36°05' W 005°11'1312.8
2017-Feb-14 19:32N 36°08' W 004°55'1212.7
2017-Feb-14 18:33N 36°10' W 004°40'18912.5
2017-Feb-14 03:22N 37°17' W 000°59'1113.1
2017-Feb-14 02:33N 37°24' W 000°49'1313.1
2017-Feb-14 01:33N 37°33' W 000°37'1312.9
2017-Feb-14 00:33N 37°43' W 000°27'1313.0
2017-Feb-13 23:33N 37°54' W 000°18'13712.5
2017-Feb-13 12:33N 39°59' E 000°54'1312.6
2017-Feb-13 11:33N 40°11' E 000°58'1212.4
2017-Feb-13 10:33N 40°23' E 001°01'1312.5
2017-Feb-13 09:30N 40°36' E 001°05'1212.4
2017-Feb-13 08:32N 40°48' E 001°08'18 1.8
2017-Feb-12 22:31N 41°05' E 001°12'0 0.0
2017-Feb-12 20:13N 41°05' E 001°12'0 0.0
2017-Feb-12 16:31N 41°05' E 001°12'0 0.0
2017-Feb-12 11:25N 41°05' E 001°12'0 0.0
2017-Feb-12 06:25N 41°05' E 001°12'3 0.1
2017-Feb-10 04:30N 41°05' E 001°17'0 0.0
2017-Feb-10 02:18N 41°05' E 001°17'  

Dump ship's entire track history